Nautilus — UBJK — position and weather

sailwx.info

Track history (hours):
 
Tides and Currents Weather Stations Pressure Air Temp Water Temp Dewpoint Dewpoint Depression Visibility Wind Speed Wind Dir Waves Ship Positions

Nautilus

Last reported at 2014-Aug-30 14:11 UTC. Time now 2014-Aug-30 16:34 UTC.
Position N 40°59' E 028°55'.

Length 108 m; draft 2.9 m.

Type: Cargo ship. MMSI: 273319030.

Date/timePositionNaut miles runAvg speedWind from/ knotsBaromVisibWave heightAir tempDewpointWater temp
2014-Aug-30 14:11N 40°59' E 028°55'0 0.0
2014-Aug-30 13:30N 40°59' E 028°55'0 0.0
2014-Aug-30 10:26N 40°59' E 028°55'0 0.0
2014-Aug-30 09:26N 40°59' E 028°55'0 0.1
2014-Aug-30 05:28N 40°58' E 028°54'3 2.9
2014-Aug-30 04:33N 40°57' E 028°57'7 6.8
2014-Aug-30 03:33N 40°51' E 029°02'7 7.5
2014-Aug-30 02:33N 40°47' E 029°11'8 7.5
2014-Aug-30 01:33N 40°45' E 029°20'9 8.4
2014-Aug-30 00:30N 40°45' E 029°32'  
2014-Aug-26 09:32N 40°46' E 029°31'4 0.4
2014-Aug-26 01:11N 40°46' E 029°26'0 0.0
2014-Aug-25 21:32N 40°46' E 029°26'0 0.0
2014-Aug-25 18:22N 40°46' E 029°26'3 3.3
2014-Aug-25 17:33N 40°44' E 029°23'6 6.3
2014-Aug-25 16:34N 40°45' E 029°15'5 3.5
2014-Aug-25 15:16N 40°50' E 029°15'0 0.0
2014-Aug-25 14:28N 40°50' E 029°15'0 0.0
2014-Aug-25 13:29N 40°50' E 029°15'0 0.0
2014-Aug-25 12:24N 40°50' E 029°15'0 0.0
2014-Aug-25 11:33N 40°50' E 029°15'0 0.0
2014-Aug-25 10:28N 40°50' E 029°15'0 0.0
2014-Aug-25 09:29N 40°50' E 029°15'0 0.0
2014-Aug-25 08:29N 40°50' E 029°15'0 0.0
2014-Aug-25 07:30N 40°50' E 029°15'0 0.0
2014-Aug-25 06:31N 40°50' E 029°15'0 0.1
2014-Aug-25 05:31N 40°50' E 029°15'0 0.1
2014-Aug-25 04:20N 40°50' E 029°15'0 0.0
2014-Aug-25 03:33N 40°50' E 029°15'0 0.0
2014-Aug-25 02:33N 40°50' E 029°15'0 0.0
2014-Aug-25 01:22N 40°50' E 029°15'0 0.0
2014-Aug-25 00:29N 40°50' E 029°15'0 0.0
2014-Aug-24 23:29N 40°50' E 029°15'0 0.0
2014-Aug-24 22:30N 40°50' E 029°15'0 0.0
2014-Aug-24 21:31N 40°50' E 029°15'0 0.0
2014-Aug-24 20:31N 40°50' E 029°15'0 0.0
2014-Aug-24 19:32N 40°50' E 029°15'0 0.0
2014-Aug-24 18:33N 40°50' E 029°15'0 0.0
2014-Aug-24 17:33N 40°50' E 029°15'0 0.0
2014-Aug-24 16:22N 40°50' E 029°15'0 0.0
2014-Aug-24 15:23N 40°50' E 029°15'0 0.0
2014-Aug-24 14:23N 40°50' E 029°15'0 0.0
2014-Aug-24 13:24N 40°50' E 029°15'0 0.0
2014-Aug-24 12:19N 40°50' E 029°15'0 0.0
2014-Aug-24 11:31N 40°50' E 029°15'0 0.0
2014-Aug-24 09:27N 40°50' E 029°15'0 0.1
2014-Aug-24 08:33N 40°50' E 029°15'0 0.0
2014-Aug-24 07:28N 40°50' E 029°15'0 0.1
2014-Aug-24 06:29N 40°50' E 029°15'0 0.1
2014-Aug-24 05:17N 40°50' E 029°15'0 0.0
2014-Aug-24 04:30N 40°50' E 029°15'0 0.0
2014-Aug-24 03:31N 40°50' E 029°15'0 0.0
2014-Aug-24 02:31N 40°50' E 029°15'0 0.0
2014-Aug-24 01:14N 40°50' E 029°15'0 0.0
2014-Aug-24 00:27N 40°50' E 029°15'0 0.0
2014-Aug-23 23:33N 40°50' E 029°15'0 0.0
2014-Aug-23 22:04N 40°50' E 029°15'0 0.0
2014-Aug-23 21:29N 40°50' E 029°15'0 0.0
2014-Aug-23 20:23N 40°50' E 029°15'0 0.0
2014-Aug-23 19:30N 40°50' E 029°15'0 0.0
2014-Aug-23 03:27N 40°50' E 029°15'0 0.0
2014-Aug-23 02:21N 40°50' E 029°15'0 0.0
2014-Aug-23 01:28N 40°50' E 029°15'0 0.0
2014-Aug-23 00:23N 40°50' E 029°15'0 0.0
2014-Aug-22 23:29N 40°50' E 029°15'0 0.0
2014-Aug-22 22:24N 40°50' E 029°15'0 0.0
2014-Aug-22 21:25N 40°50' E 029°15'0 0.0
2014-Aug-22 20:31N 40°50' E 029°15'0 0.0
2014-Aug-22 19:32N 40°50' E 029°15'0 0.0
2014-Aug-22 18:33N 40°50' E 029°15'0 0.0
2014-Aug-22 17:15N 40°50' E 029°15'0 0.0
2014-Aug-22 16:28N 40°50' E 029°15'0 0.1
2014-Aug-22 15:05N 40°50' E 029°15'1 2.0
2014-Aug-22 14:29N 40°50' E 029°17'0 0.2
2014-Aug-22 13:29N 40°50' E 029°16'0 0.0
2014-Aug-21 16:30N 40°50' E 029°16'  
Track history (hours):
 
Tides and Currents Weather Stations Pressure Air Temp Water Temp Dewpoint Dewpoint Depression Visibility Wind Speed Wind Dir Waves Ship Positions

Nautilus

Last reported at 2014-Aug-30 14:11 UTC. Time now 2014-Aug-30 16:34 UTC.
Position N 40°59' E 028°55'.

Length 108 m; draft 2.9 m.

Type: Cargo ship. MMSI: 273319030.

Date/timePositionNaut miles runAvg speedWind from/ knotsBaromVisibWave heightAir tempDewpointWater temp
2014-Aug-30 14:11N 40°59' E 028°55'0 0.0
2014-Aug-30 13:30N 40°59' E 028°55'0 0.0
2014-Aug-30 10:26N 40°59' E 028°55'0 0.0
2014-Aug-30 09:26N 40°59' E 028°55'0 0.1
2014-Aug-30 05:28N 40°58' E 028°54'3 2.9
2014-Aug-30 04:33N 40°57' E 028°57'7 6.8
2014-Aug-30 03:33N 40°51' E 029°02'7 7.5
2014-Aug-30 02:33N 40°47' E 029°11'8 7.5
2014-Aug-30 01:33N 40°45' E 029°20'9 8.4
2014-Aug-30 00:30N 40°45' E 029°32'  
2014-Aug-26 09:32N 40°46' E 029°31'4 0.4
2014-Aug-26 01:11N 40°46' E 029°26'0 0.0
2014-Aug-25 21:32N 40°46' E 029°26'0 0.0
2014-Aug-25 18:22N 40°46' E 029°26'3 3.3
2014-Aug-25 17:33N 40°44' E 029°23'6 6.3
2014-Aug-25 16:34N 40°45' E 029°15'5 3.5
2014-Aug-25 15:16N 40°50' E 029°15'0 0.0
2014-Aug-25 14:28N 40°50' E 029°15'0 0.0
2014-Aug-25 13:29N 40°50' E 029°15'0 0.0
2014-Aug-25 12:24N 40°50' E 029°15'0 0.0
2014-Aug-25 11:33N 40°50' E 029°15'0 0.0
2014-Aug-25 10:28N 40°50' E 029°15'0 0.0
2014-Aug-25 09:29N 40°50' E 029°15'0 0.0
2014-Aug-25 08:29N 40°50' E 029°15'0 0.0
2014-Aug-25 07:30N 40°50' E 029°15'0 0.0
2014-Aug-25 06:31N 40°50' E 029°15'0 0.1
2014-Aug-25 05:31N 40°50' E 029°15'0 0.1
2014-Aug-25 04:20N 40°50' E 029°15'0 0.0
2014-Aug-25 03:33N 40°50' E 029°15'0 0.0
2014-Aug-25 02:33N 40°50' E 029°15'0 0.0
2014-Aug-25 01:22N 40°50' E 029°15'0 0.0
2014-Aug-25 00:29N 40°50' E 029°15'0 0.0
2014-Aug-24 23:29N 40°50' E 029°15'0 0.0
2014-Aug-24 22:30N 40°50' E 029°15'0 0.0
2014-Aug-24 21:31N 40°50' E 029°15'0 0.0
2014-Aug-24 20:31N 40°50' E 029°15'0 0.0
2014-Aug-24 19:32N 40°50' E 029°15'0 0.0
2014-Aug-24 18:33N 40°50' E 029°15'0 0.0
2014-Aug-24 17:33N 40°50' E 029°15'0 0.0
2014-Aug-24 16:22N 40°50' E 029°15'0 0.0
2014-Aug-24 15:23N 40°50' E 029°15'0 0.0
2014-Aug-24 14:23N 40°50' E 029°15'0 0.0
2014-Aug-24 13:24N 40°50' E 029°15'0 0.0
2014-Aug-24 12:19N 40°50' E 029°15'0 0.0
2014-Aug-24 11:31N 40°50' E 029°15'0 0.0
2014-Aug-24 09:27N 40°50' E 029°15'0 0.1
2014-Aug-24 08:33N 40°50' E 029°15'0 0.0
2014-Aug-24 07:28N 40°50' E 029°15'0 0.1
2014-Aug-24 06:29N 40°50' E 029°15'0 0.1
2014-Aug-24 05:17N 40°50' E 029°15'0 0.0
2014-Aug-24 04:30N 40°50' E 029°15'0 0.0
2014-Aug-24 03:31N 40°50' E 029°15'0 0.0
2014-Aug-24 02:31N 40°50' E 029°15'0 0.0
2014-Aug-24 01:14N 40°50' E 029°15'0 0.0
2014-Aug-24 00:27N 40°50' E 029°15'0 0.0
2014-Aug-23 23:33N 40°50' E 029°15'0 0.0
2014-Aug-23 22:04N 40°50' E 029°15'0 0.0
2014-Aug-23 21:29N 40°50' E 029°15'0 0.0
2014-Aug-23 20:23N 40°50' E 029°15'0 0.0
2014-Aug-23 19:30N 40°50' E 029°15'0 0.0
2014-Aug-23 03:27N 40°50' E 029°15'0 0.0
2014-Aug-23 02:21N 40°50' E 029°15'0 0.0
2014-Aug-23 01:28N 40°50' E 029°15'0 0.0
2014-Aug-23 00:23N 40°50' E 029°15'0 0.0
2014-Aug-22 23:29N 40°50' E 029°15'0 0.0
2014-Aug-22 22:24N 40°50' E 029°15'0 0.0
2014-Aug-22 21:25N 40°50' E 029°15'0 0.0
2014-Aug-22 20:31N 40°50' E 029°15'0 0.0
2014-Aug-22 19:32N 40°50' E 029°15'0 0.0
2014-Aug-22 18:33N 40°50' E 029°15'0 0.0
2014-Aug-22 17:15N 40°50' E 029°15'0 0.0
2014-Aug-22 16:28N 40°50' E 029°15'0 0.1
2014-Aug-22 15:05N 40°50' E 029°15'1 2.0
2014-Aug-22 14:29N 40°50' E 029°17'0 0.2
2014-Aug-22 13:29N 40°50' E 029°16'0 0.0
2014-Aug-21 16:30N 40°50' E 029°16'  

Dump ship's entire track history